Time;durP1;ratioP1;P1;durP2;ratioP2;P2;SDS_P1;SDS_P2;PMS_P1;PMS_P2;Temp;Humidity;BMP_temperature;BMP_pressure;BME280_temperature;BME280_humidity;BME280_pressure;Samples;Min_cycle;Max_cycle;Signal;HPM_P1;HPM_P2
2021/11/02 00:00:13;;;;;;;4.38;3.35;;;;;;;27.13;19.68;96922.75;5056140;28;20044;-83
2021/11/02 00:02:44;;;;;;;4.47;3.08;;;;;;;27.19;19.76;96918.75;5090704;28;20122;-84
2021/11/02 00:05:10;;;;;;;6.05;3.45;;;;;;;26.64;20.61;96928.88;5092657;28;20032;-83
2021/11/02 00:07:36;;;;;;;4.30;2.50;;;;;;;26.46;20.52;96924.13;5079569;28;20025;-83
2021/11/02 00:10:04;;;;;;;4.43;2.92;;;;;;;26.36;20.69;96927.47;5074442;28;20036;-83
2021/11/02 00:12:31;;;;;;;4.10;3.28;;;;;;;25.73;21.58;96922.84;5074180;28;20039;-83
2021/11/02 00:14:57;;;;;;;4.70;3.30;;;;;;;26.09;21.32;96923.50;5074985;28;20170;-83
2021/11/02 00:17:27;;;;;;;3.67;3.08;;;;;;;26.12;21.43;96921.00;5056473;28;20385;-84
2021/11/02 00:19:57;;;;;;;2.70;2.13;;;;;;;26.47;20.98;96920.06;5073915;28;20541;-83
2021/11/02 00:22:25;;;;;;;3.65;2.83;;;;;;;27.14;19.70;96910.22;5074272;28;20111;-83
2021/11/02 00:27:23;;;;;;;3.00;2.33;;;;;;;28.33;18.72;96911.31;5074746;28;20029;-83
2021/11/02 00:29:49;;;;;;;4.32;2.70;;;;;;;28.27;18.96;96907.59;5074170;28;20021;-83
2021/11/02 00:32:15;;;;;;;5.72;4.13;;;;;;;27.65;19.76;96904.25;5081454;28;20028;-83
2021/11/02 00:34:41;;;;;;;3.67;2.83;;;;;;;27.33;19.90;96903.91;5094050;28;20020;-83
2021/11/02 00:37:07;;;;;;;3.25;2.35;;;;;;;27.68;19.55;96908.94;5076206;28;20060;-83
2021/11/02 00:39:34;;;;;;;3.50;2.33;;;;;;;28.10;18.86;96909.38;5094602;28;20031;-83
2021/11/02 00:42:00;;;;;;;3.17;2.33;;;;;;;28.44;18.28;96902.19;5093093;28;20371;-83
2021/11/02 00:44:27;;;;;;;4.32;2.95;;;;;;;28.64;18.15;96903.03;5073732;28;20036;-83
2021/11/02 00:46:56;;;;;;;6.25;4.00;;;;;;;28.77;18.41;96899.88;5071499;28;20383;-84
2021/11/02 00:49:24;;;;;;;5.45;3.35;;;;;;;28.73;18.29;96896.47;5072083;28;20045;-83
2021/11/02 00:51:51;;;;;;;3.28;2.67;;;;;;;28.53;18.73;96900.03;5072313;28;20485;-83
2021/11/02 00:54:18;;;;;;;3.10;2.40;;;;;;;28.14;18.87;96900.72;5072122;28;20040;-83
2021/11/02 00:56:45;;;;;;;4.13;3.13;;;;;;;27.59;19.98;96892.09;5072707;28;20025;-83
2021/11/02 00:59:11;;;;;;;3.75;2.35;;;;;;;27.29;20.12;96899.72;5072776;28;20056;-83
2021/11/02 01:01:38;;;;;;;3.78;2.80;;;;;;;27.11;20.38;96897.88;5072996;28;20032;-83
2021/11/02 01:04:06;;;;;;;4.55;2.80;;;;;;;26.89;20.62;96891.78;5073071;28;20039;-83
2021/11/02 01:06:34;;;;;;;3.10;2.13;;;;;;;26.80;20.50;96891.84;5073239;28;20493;-83
2021/11/02 01:09:00;;;;;;;2.30;2.10;;;;;;;27.00;20.45;96889.19;5073209;28;20490;-83
2021/11/02 01:11:27;;;;;;;3.30;2.42;;;;;;;26.80;20.75;96885.44;5055492;28;20389;-83
2021/11/02 01:13:54;;;;;;;3.00;2.28;;;;;;;27.07;20.31;96888.81;5073371;28;20037;-83
2021/11/02 01:16:24;;;;;;;4.35;3.38;;;;;;;26.49;20.58;96888.63;5073742;28;20058;-83
2021/11/02 01:18:54;;;;;;;2.63;2.28;;;;;;;26.96;20.16;96885.00;5073169;28;20029;-83
2021/11/02 01:21:21;;;;;;;4.50;2.30;;;;;;;27.57;19.34;96880.53;5055044;28;20076;-83
2021/11/02 01:23:47;;;;;;;3.13;2.30;;;;;;;27.98;19.04;96873.78;5073705;28;20043;-83
2021/11/02 01:26:14;;;;;;;5.20;3.35;;;;;;;28.25;18.77;96867.81;5073263;28;20467;-83
2021/11/02 01:28:41;;;;;;;3.10;2.58;;;;;;;27.93;19.23;96866.78;5073264;28;20052;-83
2021/11/02 01:31:07;;;;;;;4.95;3.28;;;;;;;27.83;19.36;96859.69;5073318;28;20071;-83
2021/11/02 01:33:33;;;;;;;3.83;2.47;;;;;;;27.90;19.15;96862.13;5073010;28;20033;-83
2021/11/02 01:35:59;;;;;;;3.45;2.47;;;;;;;27.98;19.19;96860.44;5073443;28;20028;-83
2021/11/02 01:38:26;;;;;;;2.90;1.88;;;;;;;28.27;18.82;96864.47;5072946;28;20039;-83
2021/11/02 01:40:54;;;;;;;2.65;1.92;;;;;;;28.19;18.75;96860.53;5079302;28;20063;-83
2021/11/02 01:43:21;;;;;;;3.65;2.97;;;;;;;27.83;19.28;96854.06;5053067;28;20111;-83
2021/11/02 01:45:49;;;;;;;3.53;3.00;;;;;;;26.49;20.91;96849.97;5058074;28;20547;-83
2021/11/02 01:48:21;;;;;;;3.90;2.95;;;;;;;26.11;21.13;96846.31;5072874;28;20037;-83
2021/11/02 01:50:48;;;;;;;4.03;2.50;;;;;;;26.58;20.69;96841.47;5073052;28;20031;-83
2021/11/02 01:53:14;;;;;;;3.70;2.85;;;;;;;26.72;20.65;96834.34;5073100;28;20035;-83
2021/11/02 01:55:41;;;;;;;3.45;2.17;;;;;;;26.99;20.37;96836.16;5073180;28;20035;-83
2021/11/02 01:58:09;;;;;;;2.45;2.05;;;;;;;27.43;19.95;96828.53;5073504;28;20044;-83
2021/11/02 02:00:36;;;;;;;2.17;1.98;;;;;;;27.73;19.46;96824.41;5072923;28;20027;-83
2021/11/02 02:03:10;;;;;;;2.10;1.67;;;;;;;28.14;19.09;96822.50;5073162;28;20037;-84
2021/11/02 02:05:49;;;;;;;3.22;2.70;;;;;;;27.81;19.72;96819.13;5073272;28;20497;-83
2021/11/02 02:08:30;;;;;;;3.75;2.45;;;;;;;27.67;19.81;96822.75;5073043;28;20490;-83
2021/11/02 02:11:12;;;;;;;3.97;2.58;;;;;;;26.93;21.24;96821.97;5056072;28;20029;-83
2021/11/02 02:13:41;;;;;;;2.10;1.75;;;;;;;26.78;20.90;96820.38;5073342;28;20086;-83
2021/11/02 02:16:33;;;;;;;3.05;2.42;;;;;;;26.91;20.46;96820.91;5072605;28;20036;-83
2021/11/02 02:19:26;;;;;;;3.60;2.92;;;;;;;26.60;21.04;96812.84;5074700;28;20033;-84
2021/11/02 02:22:19;;;;;;;3.10;2.38;;;;;;;26.94;20.36;96803.78;5076899;28;20040;-83
2021/11/02 02:25:30;;;;;;;2.88;1.98;;;;;;;27.31;20.20;96793.69;5056582;28;20112;-83
2021/11/02 02:28:23;;;;;;;4.20;2.80;;;;;;;27.73;19.74;96804.66;5056829;28;20555;-83
2021/11/02 02:30:53;;;;;;;2.72;1.98;;;;;;;28.09;19.28;96794.97;5071682;28;20041;-83
2021/11/02 02:33:24;;;;;;;3.10;1.80;;;;;;;28.34;19.13;96802.72;5076504;28;20161;-84
2021/11/02 02:35:51;;;;;;;4.20;2.15;;;;;;;28.42;19.05;96794.63;5076360;28;20477;-84
2021/11/02 02:38:20;;;;;;;1.70;1.60;;;;;;;28.07;19.63;96800.31;5076559;28;20028;-83
2021/11/02 02:40:49;;;;;;;2.53;1.80;;;;;;;27.94;19.66;96794.97;5064193;28;20112;-83
2021/11/02 02:43:17;;;;;;;2.22;1.90;;;;;;;27.94;19.48;96800.63;5056276;28;20384;-83
2021/11/02 02:45:45;;;;;;;2.55;1.95;;;;;;;27.56;19.84;96814.91;5057306;28;20032;-83
2021/11/02 02:48:12;;;;;;;3.45;2.45;;;;;;;27.39;20.25;96811.03;5074822;28;20036;-83
2021/11/02 02:50:39;;;;;;;3.30;2.45;;;;;;;27.42;20.43;96814.91;5074210;28;20040;-83
2021/11/02 02:53:05;;;;;;;3.47;2.78;;;;;;;26.70;21.02;96806.63;5065840;28;20515;-83
2021/11/02 02:55:32;;;;;;;2.40;1.95;;;;;;;26.26;21.67;96811.34;5076045;28;20048;-83
2021/11/02 02:58:00;;;;;;;3.67;2.08;;;;;;;26.83;21.06;96817.66;5076000;28;20025;-83
2021/11/02 03:00:26;;;;;;;4.60;2.45;;;;;;;27.06;20.57;96805.56;5057978;28;20032;-83
2021/11/02 03:02:53;;;;;;;5.13;2.83;;;;;;;27.17;20.44;96807.78;5057861;28;20068;-83
2021/11/02 03:05:24;;;;;;;3.08;2.40;;;;;;;26.98;20.58;96812.06;5076201;28;20029;-83
2021/11/02 03:07:54;;;;;;;3.50;2.75;;;;;;;26.94;20.63;96805.81;5076085;28;20086;-83
2021/11/02 03:10:22;;;;;;;5.18;3.75;;;;;;;26.62;20.89;96805.47;5066723;28;20482;-84
2021/11/02 03:12:51;;;;;;;3.85;3.28;;;;;;;26.73;21.13;96802.06;5055389;28;20029;-83
2021/11/02 03:18:36;;;;;;;4.90;2.55;;;;;;;27.40;20.22;96804.91;5055679;28;20462;-83
2021/11/02 03:43:45;;;;;;;2.38;2.17;;;;;;;27.44;20.21;96792.66;5075410;28;20183;-84
2021/11/02 03:49:07;;;;;;;2.78;1.75;;;;;;;27.86;19.85;96784.59;5074013;28;20051;-84
2021/11/02 04:27:52;;;;;;;5.15;2.75;;;;;;;25.75;24.73;96788.19;5074353;28;20055;-83
2021/11/02 04:33:18;;;;;;;3.95;2.90;;;;;;;24.94;26.04;96778.00;5094412;28;20036;-83
2021/11/02 06:29:59;;;;;;;4.68;2.45;;;;;;;27.77;22.93;96720.59;5077401;28;20102;-83
2021/11/02 06:32:30;;;;;;;4.93;3.58;;;;;;;27.17;23.76;96734.50;5076609;28;20024;-83
2021/11/02 06:35:11;;;;;;;3.80;3.20;;;;;;;25.45;26.10;96741.50;5076497;28;20032;-83
2021/11/02 06:38:13;;;;;;;4.60;3.42;;;;;;;25.60;26.31;96740.31;5065051;28;20033;-83
2021/11/02 06:54:08;;;;;;;3.88;2.95;;;;;;;27.45;24.07;96747.03;5076444;28;20063;-83
2021/11/02 07:19:44;;;;;;;2.80;2.28;;;;;;;27.82;24.01;96739.66;5068710;28;20025;-84
2021/11/02 07:25:05;;;;;;;2.70;1.92;;;;;;;27.92;23.57;96741.09;5076052;28;20044;-83
2021/11/02 08:47:58;;;;;;;3.92;3.53;;;;;;;27.99;24.04;96735.06;5081625;28;20387;-82
2021/11/02 08:50:24;;;;;;;3.88;3.10;;;;;;;28.33;23.79;96733.44;5073816;28;20070;-82
2021/11/02 08:52:53;;;;;;;4.40;3.55;;;;;;;28.82;23.72;96740.16;5073303;28;20040;-81
2021/11/02 08:55:20;;;;;;;4.00;3.60;;;;;;;29.14;23.15;96738.91;5065745;28;20081;-81
2021/11/02 08:57:50;;;;;;;7.40;5.70;;;;;;;28.33;23.72;96730.63;5053701;28;20039;-81
2021/11/02 09:00:18;;;;;;;6.30;5.20;;;;;;;27.82;24.57;96736.84;5055752;28;20029;-81
2021/11/02 09:02:50;;;;;;;5.45;4.25;;;;;;;27.91;24.35;96736.69;5084785;28;20086;-81
2021/11/02 09:05:22;;;;;;;9.15;5.03;;;;;;;27.36;24.84;96739.47;5088580;28;20159;-81
2021/11/02 09:07:51;;;;;;;9.30;7.60;;;;;;;26.71;25.85;96737.03;5053590;28;20033;-81
2021/11/02 09:10:20;;;;;;;9.10;7.38;;;;;;;25.90;26.81;96741.25;5053613;28;20032;-81
2021/11/02 09:12:50;;;;;;;8.80;6.30;;;;;;;25.04;28.26;96743.03;5035606;28;20037;-81
2021/11/02 09:15:21;;;;;;;12.77;8.30;;;;;;;24.36;29.14;96750.13;5053659;28;20061;-81
2021/11/02 09:17:50;;;;;;;7.50;5.57;;;;;;;24.89;28.82;96742.13;5059743;28;20544;-81
2021/11/02 09:20:17;;;;;;;10.65;8.10;;;;;;;24.32;29.15;96744.66;5073756;28;20051;-81
2021/11/02 09:22:44;;;;;;;11.73;7.25;;;;;;;25.54;27.74;96747.06;5040182;28;20086;-81
2021/11/02 09:25:10;;;;;;;12.80;8.77;;;;;;;25.51;27.42;96753.66;5053359;28;20482;-81
2021/11/02 09:27:38;;;;;;;10.30;7.57;;;;;;;24.63;28.73;96748.06;5052809;28;20029;-81
2021/11/02 09:30:06;;;;;;;12.43;9.23;;;;;;;24.70;28.77;96747.75;5062547;28;20105;-81
2021/11/02 09:32:34;;;;;;;12.20;8.13;;;;;;;24.46;29.08;96746.84;5072568;28;20047;-81
2021/11/02 09:35:01;;;;;;;11.85;8.98;;;;;;;23.87;30.10;96747.41;5052124;28;20032;-82
2021/11/02 09:37:33;;;;;;;12.15;9.32;;;;;;;23.26;30.83;96748.28;5073010;28;20028;-81
2021/11/02 09:40:26;;;;;;;9.93;7.53;;;;;;;22.75;31.74;96755.50;5073231;28;20533;-81
2021/11/02 09:43:01;;;;;;;10.18;8.10;;;;;;;22.13;32.69;96758.09;5055069;28;20448;-81
2021/11/02 09:45:52;;;;;;;11.77;7.95;;;;;;;21.77;33.49;96766.91;5055088;28;20043;-81
2021/11/02 09:48:51;;;;;;;12.80;7.88;;;;;;;22.43;32.33;96765.78;5069469;28;20114;-81
2021/11/02 09:51:23;;;;;;;11.13;8.18;;;;;;;22.76;31.55;96771.81;5069656;28;20040;-81
2021/11/02 09:53:58;;;;;;;10.13;7.70;;;;;;;24.26;29.31;96763.38;5073447;28;20036;-81
2021/11/02 09:56:38;;;;;;;10.93;7.95;;;;;;;24.92;27.99;96769.28;5072814;28;20486;-82
2021/11/02 09:59:36;;;;;;;10.77;7.68;;;;;;;25.64;26.96;96768.25;5054152;28;20068;-82
2021/11/02 10:02:50;;;;;;;10.88;7.70;;;;;;;25.18;27.21;96765.59;5072773;28;20521;-82
2021/11/02 10:05:32;;;;;;;10.80;7.75;;;;;;;25.33;27.29;96766.50;5037596;28;20083;-82
2021/11/02 10:08:16;;;;;;;11.27;7.88;;;;;;;25.24;27.52;96760.13;5072933;28;20063;-82
2021/11/02 10:11:03;;;;;;;10.45;7.80;;;;;;;25.50;27.56;96763.34;5063930;28;20048;-82
2021/11/02 10:14:03;;;;;;;9.48;7.28;;;;;;;25.52;27.26;96764.41;5072568;28;20171;-82
2021/11/02 10:16:41;;;;;;;11.05;7.82;;;;;;;25.71;27.19;96760.25;5030701;28;20059;-83
2021/11/02 10:19:32;;;;;;;12.73;9.02;;;;;;;25.75;27.05;96757.25;5072501;28;20032;-82
2021/11/02 10:22:27;;;;;;;10.27;7.13;;;;;;;26.31;26.57;96762.06;5063736;28;20060;-83
2021/11/02 10:25:34;;;;;;;7.15;5.47;;;;;;;26.63;25.58;96758.34;5062818;28;20123;-82
2021/11/02 10:28:37;;;;;;;6.90;5.20;;;;;;;27.16;25.23;96747.84;5036913;28;20418;-83
2021/11/02 10:31:11;;;;;;;7.90;5.30;;;;;;;27.52;24.74;96755.09;5052651;28;20052;-83
2021/11/02 10:33:57;;;;;;;9.60;7.00;;;;;;;27.27;25.16;96750.06;5070624;28;20029;-81
2021/11/02 10:37:11;;;;;;;8.95;7.22;;;;;;;26.88;25.89;96754.25;5052756;28;20048;-80
2021/11/02 10:39:42;;;;;;;8.52;6.30;;;;;;;26.84;26.04;96753.69;5054137;28;20470;-83
2021/11/02 10:42:28;;;;;;;8.90;6.25;;;;;;;26.79;26.30;96743.88;5057594;28;20029;-83
2021/11/02 10:45:00;;;;;;;6.00;5.22;;;;;;;27.00;25.89;96748.31;5075371;28;20436;-83
2021/11/02 10:47:32;;;;;;;;;;;;;;;26.78;26.46;96744.34;5058596;28;20033;-83
2021/11/02 10:50:03;;;;;;;9.82;7.05;;;;;;;26.05;27.09;96747.69;5072012;28;19917;-83
2021/11/02 10:52:33;;;;;;;7.20;5.53;;;;;;;25.35;27.88;96746.34;5054926;28;20033;-83
2021/11/02 10:55:07;;;;;;;8.18;6.85;;;;;;;25.22;28.32;96740.94;5056430;28;20406;-83
2021/11/02 10:57:57;;;;;;;8.43;6.95;;;;;;;25.28;28.29;96739.03;5055758;28;20111;-83
2021/11/02 11:00:23;;;;;;;8.95;5.72;;;;;;;25.98;27.57;96745.25;5067204;28;20067;-83
2021/11/02 11:02:54;;;;;;;8.25;6.20;;;;;;;26.65;27.09;96738.97;5076108;28;20033;-84
2021/11/02 11:05:24;;;;;;;7.35;5.47;;;;;;;27.28;25.89;96746.00;5075855;28;20032;-84
2021/11/02 11:07:52;;;;;;;10.35;6.25;;;;;;;27.46;25.43;96734.50;5058112;28;20048;-84
2021/11/02 11:10:22;;;;;;;14.02;8.77;;;;;;;27.20;25.84;96736.38;5075632;28;20032;-83
2021/11/02 11:12:59;;;;;;;10.20;6.65;;;;;;;27.03;26.24;96730.44;5075575;28;20032;-84
2021/11/02 11:15:35;;;;;;;10.30;7.05;;;;;;;26.58;26.90;96742.91;5075944;28;20029;-84
2021/11/02 11:18:09;;;;;;;10.23;8.27;;;;;;;26.53;26.73;96740.00;5055759;28;20390;-83
2021/11/02 11:20:39;;;;;;;9.95;7.03;;;;;;;25.39;27.74;96742.09;5057306;28;20059;-83
2021/11/02 11:23:10;;;;;;;10.88;7.07;;;;;;;24.93;28.81;96737.13;5074418;28;20123;-83
2021/11/02 11:25:50;;;;;;;8.73;6.28;;;;;;;25.36;28.86;96737.47;5063488;28;20036;-83
2021/11/02 11:28:18;;;;;;;9.43;6.65;;;;;;;26.32;27.44;96741.13;5075748;28;20032;-84
2021/11/02 11:30:45;;;;;;;9.20;6.63;;;;;;;26.47;27.11;96744.75;5075471;28;20032;-84
2021/11/02 11:33:15;;;;;;;9.82;7.15;;;;;;;25.88;27.44;96735.34;5084594;28;20036;-83
2021/11/02 11:35:42;;;;;;;7.50;5.85;;;;;;;26.07;27.74;96734.72;5057873;28;20036;-83
2021/11/02 11:38:10;;;;;;;8.70;6.82;;;;;;;25.39;28.10;96735.72;5075271;28;20115;-83
2021/11/02 11:40:39;;;;;;;8.88;6.88;;;;;;;25.13;28.92;96732.56;5075031;28;20055;-83
2021/11/02 11:43:10;;;;;;;9.02;5.80;;;;;;;25.57;28.26;96729.25;5075145;28;20040;-83
2021/11/02 11:45:37;;;;;;;;;;;;;;;25.90;28.14;96725.16;5075603;28;20025;-84
2021/11/02 11:48:04;;;;;;;7.03;5.40;;;;;;;25.69;28.19;96726.22;5075000;28;20431;-84
2021/11/02 11:50:31;;;;;;;8.15;5.90;;;;;;;26.22;27.47;96722.75;5056094;28;20035;-83
2021/11/02 11:53:05;;;;;;;8.90;5.55;;;;;;;26.53;26.94;96732.34;5075328;28;20442;-83
2021/11/02 11:55:34;;;;;;;4.75;3.80;;;;;;;26.82;26.66;96717.53;5074750;28;20032;-83
2021/11/02 11:58:23;;;;;;;5.88;3.80;;;;;;;27.47;25.62;96719.13;5057008;28;20159;-84
2021/11/02 12:01:14;;;;;;;5.30;3.65;;;;;;;28.04;24.90;96722.28;5074623;28;20036;-84
2021/11/02 12:03:55;;;;;;;8.38;4.57;;;;;;;28.67;24.08;96729.75;5074796;28;20036;-84
2021/11/02 12:06:29;;;;;;;8.07;5.35;;;;;;;29.06;23.37;96727.28;5074870;28;20030;-84
2021/11/02 12:09:06;;;;;;;7.38;4.82;;;;;;;29.35;22.86;96732.72;5074560;28;20036;-84
2021/11/02 12:11:34;;;;;;;8.70;6.25;;;;;;;29.54;22.73;96729.50;5094566;28;20125;-84
2021/11/02 12:14:12;;;;;;;5.85;4.70;;;;;;;29.38;23.04;96731.69;5094775;28;20036;-84
2021/11/02 12:16:39;;;;;;;7.68;5.30;;;;;;;29.11;23.24;96729.38;5095037;28;20543;-84
2021/11/02 12:19:10;;;;;;;6.28;5.43;;;;;;;28.27;24.11;96721.28;5070563;28;20069;-84
2021/11/02 12:21:38;;;;;;;6.40;5.18;;;;;;;27.87;24.85;96724.06;5054210;28;20055;-84
2021/11/02 12:24:08;;;;;;;6.40;4.80;;;;;;;27.75;25.14;96723.16;5056642;28;20029;-84
2021/11/02 12:26:44;;;;;;;5.43;4.63;;;;;;;27.62;25.61;96721.94;5065296;28;20039;-84
2021/11/02 12:29:17;;;;;;;5.82;4.70;;;;;;;27.17;26.10;96723.25;5074458;28;20043;-84
2021/11/02 12:31:52;;;;;;;8.13;6.07;;;;;;;26.88;26.61;96720.47;5056242;28;20509;-84
2021/11/02 12:34:18;;;;;;;8.57;5.60;;;;;;;26.73;26.90;96720.41;5075268;28;20039;-84
2021/11/02 12:36:47;;;;;;;5.30;4.65;;;;;;;26.27;27.26;96730.53;5056003;28;20028;-84
2021/11/02 12:39:17;;;;;;;4.97;4.00;;;;;;;26.42;27.49;96712.41;5089537;28;20448;-84
2021/11/02 12:41:53;;;;;;;5.32;3.95;;;;;;;26.81;26.81;96723.66;5073850;28;20046;-84
2021/11/02 12:44:35;;;;;;;4.70;4.13;;;;;;;26.96;26.35;96719.56;5056696;28;20056;-84
2021/11/02 12:47:03;;;;;;;4.65;3.60;;;;;;;27.00;26.31;96719.41;5074160;28;20024;-84
2021/11/02 12:49:47;;;;;;;3.78;3.38;;;;;;;26.90;26.54;96713.06;5073342;28;20122;-84
2021/11/02 12:52:15;;;;;;;5.57;4.38;;;;;;;26.21;27.57;96710.72;5073975;28;20446;-84
2021/11/02 12:54:42;;;;;;;5.93;5.22;;;;;;;25.24;29.03;96703.94;5038987;28;20044;-84
2021/11/02 12:57:14;;;;;;;6.00;4.85;;;;;;;24.87;29.83;96703.31;5073680;28;20033;-84
2021/11/02 12:59:44;;;;;;;8.02;6.18;;;;;;;24.80;29.94;96697.22;5074184;28;20032;-83
2021/11/02 13:02:31;;;;;;;6.82;5.45;;;;;;;24.72;29.98;96705.16;5064574;28;20033;-84
2021/11/02 13:05:00;;;;;;;8.38;6.00;;;;;;;24.78;30.17;96702.56;5070106;28;20033;-83
2021/11/02 13:07:27;;;;;;;7.10;4.68;;;;;;;25.85;28.23;96714.56;5073464;28;20033;-84
2021/11/02 13:09:55;;;;;;;9.02;5.78;;;;;;;26.20;27.65;96726.06;5073428;28;20032;-84
2021/11/02 13:12:26;;;;;;;4.47;3.92;;;;;;;27.07;26.43;96719.00;5073480;28;20093;-84
2021/11/02 13:15:00;;;;;;;6.00;4.05;;;;;;;27.95;25.00;96726.00;5073810;28;20062;-84
2021/11/02 13:17:35;;;;;;;5.70;4.10;;;;;;;28.68;24.05;96724.88;5081239;28;20090;-84
2021/11/02 13:20:02;;;;;;;6.60;5.03;;;;;;;28.76;24.14;96720.31;5053918;28;20486;-84
2021/11/02 13:22:28;;;;;;;7.18;5.60;;;;;;;28.04;24.52;96717.44;5053097;28;20021;-84
2021/11/02 13:25:11;;;;;;;6.57;3.97;;;;;;;27.81;25.10;96718.38;5062368;28;20031;-84
2021/11/02 13:27:42;;;;;;;7.25;5.13;;;;;;;27.76;25.75;96718.28;5053587;28;20032;-84
2021/11/02 13:30:31;;;;;;;5.95;4.57;;;;;;;28.02;25.39;96716.38;5053585;28;20053;-84
2021/11/02 13:33:04;;;;;;;5.10;3.67;;;;;;;28.45;24.41;96718.16;5060781;28;20035;-84
2021/11/02 13:35:50;;;;;;;6.35;4.63;;;;;;;28.47;24.48;96718.44;5073745;28;20028;-84
2021/11/02 13:38:36;;;;;;;8.35;6.20;;;;;;;28.03;24.60;96717.91;5072866;28;20040;-84
2021/11/02 13:41:06;;;;;;;6.28;5.32;;;;;;;27.52;25.55;96720.47;5073076;28;20529;-84
2021/11/02 13:43:35;;;;;;;10.95;6.20;;;;;;;27.39;26.18;96718.78;5073405;28;20029;-84
2021/11/02 13:46:02;;;;;;;5.10;4.05;;;;;;;27.53;25.92;96722.06;5073474;28;20115;-84
2021/11/02 13:48:31;;;;;;;7.05;5.32;;;;;;;26.83;26.76;96719.09;5073391;28;20060;-84
2021/11/02 13:50:59;;;;;;;6.25;5.25;;;;;;;27.08;26.39;96718.50;5038751;28;20124;-84
2021/11/02 13:53:25;;;;;;;7.65;5.68;;;;;;;27.06;26.72;96721.03;5072848;28;20034;-84
2021/11/02 13:55:52;;;;;;;7.78;5.93;;;;;;;26.98;26.50;96722.69;5073034;28;20436;-84
2021/11/02 13:58:18;;;;;;;8.65;6.22;;;;;;;26.70;26.99;96718.56;5072963;28;20112;-84
2021/11/02 14:00:45;;;;;;;6.75;4.70;;;;;;;26.86;27.47;96726.59;5073230;28;20043;-84
2021/11/02 14:03:17;;;;;;;11.18;7.68;;;;;;;26.57;27.07;96729.34;5072742;28;20397;-84
2021/11/02 14:05:45;;;;;;;12.35;8.13;;;;;;;26.34;27.35;96727.34;5065308;28;20025;-84
2021/11/02 14:08:12;;;;;;;11.07;7.38;;;;;;;25.64;28.46;96729.69;5071431;28;20025;-84
2021/11/02 14:10:51;;;;;;;12.85;8.55;;;;;;;24.95;29.46;96726.22;5072791;28;20050;-84
2021/11/02 14:13:40;;;;;;;12.27;9.60;;;;;;;24.72;30.01;96728.41;5072755;28;20029;-84
2021/11/02 14:16:06;;;;;;;17.02;11.82;;;;;;;24.17;30.80;96723.31;5058816;28;20040;-84
2021/11/02 14:18:33;;;;;;;17.27;11.65;;;;;;;22.79;33.17;96734.53;5058960;28;20028;-84
2021/11/02 14:21:00;;;;;;;14.82;10.15;;;;;;;23.86;31.53;96724.19;5076358;28;20081;-83
2021/11/02 14:23:42;;;;;;;14.93;10.77;;;;;;;23.38;32.03;96720.19;5076305;28;20024;-84
2021/11/02 14:26:31;;;;;;;14.00;10.50;;;;;;;23.17;32.55;96711.84;5095743;28;20077;-84
2021/11/02 14:28:59;;;;;;;16.75;11.77;;;;;;;22.66;33.39;96719.84;5085851;28;20036;-84
2021/11/02 14:31:37;;;;;;;16.65;11.18;;;;;;;22.65;33.61;96723.88;5065452;28;20025;-83
2021/11/02 14:34:05;;;;;;;15.35;10.82;;;;;;;23.19;32.53;96723.38;5056771;28;20033;-83
2021/11/02 14:36:41;;;;;;;19.10;11.80;;;;;;;23.11;32.44;96727.69;5056155;28;20028;-84
2021/11/02 14:39:08;;;;;;;13.25;10.15;;;;;;;23.22;32.04;96736.47;5056705;28;20497;-84
2021/11/02 14:41:36;;;;;;;13.90;9.77;;;;;;;23.44;31.93;96739.97;5069421;28;20052;-83
2021/11/02 14:44:14;;;;;;;10.20;7.43;;;;;;;24.36;30.54;96731.28;5076913;28;20033;-84
2021/11/02 14:46:42;;;;;;;16.10;10.80;;;;;;;23.95;30.72;96738.22;5076187;28;20494;-84
2021/11/02 14:49:30;;;;;;;15.70;10.48;;;;;;;23.28;31.73;96740.19;5075761;28;20093;-83
2021/11/02 14:52:00;;;;;;;15.27;10.40;;;;;;;23.92;31.01;96741.94;5076158;28;20028;-83
2021/11/02 14:54:30;;;;;;;11.05;8.35;;;;;;;24.36;30.24;96736.09;5057936;28;20032;-83
2021/11/02 14:57:19;;;;;;;14.07;10.43;;;;;;;24.33;30.52;96742.63;5076619;28;20090;-84
2021/11/02 14:59:57;;;;;;;15.68;9.98;;;;;;;24.56;29.79;96742.78;5064376;28;20051;-84
2021/11/02 15:02:43;;;;;;;14.52;10.50;;;;;;;25.04;29.38;96734.63;5055874;28;20564;-84
2021/11/02 15:05:12;;;;;;;14.88;9.75;;;;;;;25.11;28.94;96731.47;5055991;28;20477;-84
2021/11/02 15:07:43;;;;;;;13.60;9.77;;;;;;;25.20;28.90;96729.41;5055908;28;20450;-84
2021/11/02 15:10:12;;;;;;;11.27;7.60;;;;;;;25.79;28.25;96738.22;5070426;28;20040;-85
2021/11/02 15:12:39;;;;;;;9.75;6.60;;;;;;;26.07;27.68;96748.00;5075615;28;20024;-85
2021/11/02 15:15:06;;;;;;;11.75;8.40;;;;;;;26.81;26.24;96746.97;5075523;28;20094;-84
2021/11/02 15:17:32;;;;;;;10.07;7.40;;;;;;;27.18;25.82;96738.91;5076555;28;20111;-84
2021/11/02 15:19:58;;;;;;;12.80;9.15;;;;;;;27.11;25.93;96742.91;5075310;28;20084;-85
2021/11/02 15:22:26;;;;;;;11.82;8.25;;;;;;;26.53;26.73;96746.44;5057474;28;20029;-85
2021/11/02 15:24:54;;;;;;;14.05;7.57;;;;;;;26.46;26.86;96740.38;5070512;28;20025;-84
2021/11/02 15:27:26;;;;;;;11.55;8.82;;;;;;;26.18;27.28;96744.69;5068513;28;20473;-84
2021/11/02 15:29:57;;;;;;;15.88;10.98;;;;;;;25.74;27.60;96750.09;5075453;28;20482;-84
2021/11/02 15:32:35;;;;;;;15.82;10.68;;;;;;;25.27;28.45;96745.13;5075277;28;20074;-84
2021/11/02 15:35:03;;;;;;;10.75;8.30;;;;;;;25.08;28.76;96744.44;5055674;28;20029;-84
2021/11/02 15:37:31;;;;;;;12.85;9.40;;;;;;;25.31;28.46;96746.53;5070637;28;20112;-84
2021/11/02 15:40:22;;;;;;;12.00;8.70;;;;;;;25.63;28.03;96741.41;5055314;28;20386;-84
2021/11/02 15:42:50;;;;;;;;;;;;;;;25.96;27.80;96747.75;5048812;28;20080;-84
2021/11/02 15:45:30;;;;;;;7.00;5.75;;;;;;;26.82;26.32;96750.53;5055211;28;20334;-84
2021/11/02 15:48:05;;;;;;;8.75;5.97;;;;;;;27.11;25.50;96745.72;5055058;28;20094;-84
2021/11/02 15:50:33;;;;;;;6.60;5.22;;;;;;;27.45;25.17;96741.41;5075294;28;20040;-84
2021/11/02 15:53:02;;;;;;;7.60;5.75;;;;;;;27.73;25.01;96739.78;5074471;28;20485;-84
2021/11/02 15:55:29;;;;;;;10.30;7.03;;;;;;;27.46;25.10;96739.38;5074899;28;20028;-84
2021/11/02 15:58:06;;;;;;;10.57;7.43;;;;;;;27.19;25.22;96737.66;5075287;28;20047;-84
2021/11/02 16:00:35;;;;;;;9.90;6.97;;;;;;;27.08;25.54;96737.44;5074678;28;20032;-84
2021/11/02 16:03:02;;;;;;;7.97;5.97;;;;;;;27.19;25.34;96738.41;5074494;28;20093;-84
2021/11/02 16:05:31;;;;;;;6.47;4.88;;;;;;;27.58;24.78;96732.63;5074954;28;20037;-84
2021/11/02 16:08:14;;;;;;;6.30;4.95;;;;;;;27.91;24.42;96736.69;5075333;28;20052;-84
2021/11/02 16:10:40;;;;;;;6.40;5.30;;;;;;;28.26;24.04;96733.88;5074838;28;20109;-84
2021/11/02 16:13:08;;;;;;;7.05;5.38;;;;;;;28.32;23.77;96731.09;5074881;28;20032;-84
2021/11/02 16:15:40;;;;;;;9.52;7.93;;;;;;;27.11;25.13;96734.44;5073522;28;20032;-84
2021/11/02 16:18:26;;;;;;;11.55;7.93;;;;;;;25.45;27.35;96736.66;5074557;28;20028;-84
2021/11/02 16:20:57;;;;;;;10.95;7.72;;;;;;;25.57;27.35;96746.13;5067990;28;20098;-84
2021/11/02 16:23:26;;;;;;;10.70;7.60;;;;;;;24.61;28.54;96739.34;5066185;28;20398;-84
2021/11/02 16:25:58;;;;;;;8.43;7.15;;;;;;;25.01;28.65;96746.78;5054708;28;20124;-84
2021/11/02 16:28:30;;;;;;;9.30;6.60;;;;;;;25.91;26.96;96748.41;5054726;28;20029;-84
2021/11/02 16:30:59;;;;;;;6.72;5.20;;;;;;;26.37;26.06;96755.28;5053913;28;20150;-83
2021/11/02 16:33:38;;;;;;;8.88;5.90;;;;;;;26.11;26.54;96748.66;5054300;28;20414;-84
2021/11/02 16:36:37;;;;;;;7.63;6.15;;;;;;;25.69;26.87;96750.75;5054151;28;20039;-84
2021/11/02 16:39:13;;;;;;;8.95;6.70;;;;;;;25.42;27.44;96752.41;5054626;28;20025;-84
2021/11/02 16:41:52;;;;;;;9.57;8.15;;;;;;;24.67;28.60;96750.72;5065508;28;20041;-84
2021/11/02 16:44:36;;;;;;;8.93;7.05;;;;;;;24.91;28.27;96757.25;5073719;28;20501;-84
2021/11/02 16:47:10;;;;;;;7.60;5.35;;;;;;;25.78;26.77;96759.13;5074754;28;20024;-84
2021/11/02 16:49:37;;;;;;;6.97;4.25;;;;;;;26.44;25.87;96760.56;5073962;28;20388;-84
2021/11/02 16:52:07;;;;;;;5.15;4.45;;;;;;;26.99;25.17;96760.88;5055893;28;20024;-84
2021/11/02 16:54:43;;;;;;;6.65;5.32;;;;;;;27.33;24.29;96768.63;5073769;28;20421;-83
2021/11/02 16:57:16;;;;;;;9.10;6.40;;;;;;;27.30;24.73;96775.25;5073541;28;20021;-84
2021/11/02 16:59:47;;;;;;;7.35;5.88;;;;;;;26.60;25.69;96793.13;5073918;28;20083;-83
2021/11/02 17:02:27;;;;;;;5.70;4.45;;;;;;;26.23;25.94;96800.28;5073639;28;20048;-83